Time;durP1;ratioP1;P1;durP2;ratioP2;P2;SDS_P1;SDS_P2;PMS_P1;PMS_P2;Temp;Humidity;BMP_temperature;BMP_pressure;BME280_temperature;BME280_humidity;BME280_pressure;Samples;Min_cycle;Max_cycle;Signal;HPM_P1;HPM_P2
2021/09/10 00:00:39;;;;;;;3.75;1.25;;;18.20;99.90;;;;;;5052079;28;20802;-85
2021/09/10 00:03:08;;;;;;;6.85;1.48;;;18.20;99.90;;;;;;5053736;28;20048;-86
2021/09/10 00:05:37;;;;;;;2.55;1.13;;;18.20;99.90;;;;;;5040254;28;20034;-87
2021/09/10 00:08:05;;;;;;;4.30;1.40;;;18.30;99.90;;;;;;5015534;28;20052;-87
2021/09/10 00:10:33;;;;;;;4.38;1.40;;;18.30;99.90;;;;;;5046734;28;20059;-85
2021/09/10 00:13:01;;;;;;;2.67;1.58;;;18.30;99.90;;;;;;5050642;28;20073;-85
2021/09/10 00:15:29;;;;;;;4.22;1.23;;;18.30;99.90;;;;;;5053529;28;20037;-86
2021/09/10 00:17:57;;;;;;;8.02;1.23;;;18.40;99.90;;;;;;5054308;28;20048;-85
2021/09/10 00:20:24;;;;;;;9.93;2.17;;;18.40;99.90;;;;;;5033280;28;20049;-87
2021/09/10 00:22:52;;;;;;;6.55;1.58;;;18.40;99.90;;;;;;5035253;28;20052;-85
2021/09/10 00:25:22;;;;;;;1.15;1.00;;;18.40;99.90;;;;;;5027035;28;20064;-87
2021/09/10 00:27:51;;;;;;;;;;;18.40;99.90;;;;;;5019182;28;20172;-86
2021/09/10 00:30:19;;;;;;;2.42;1.52;;;18.50;99.90;;;;;;5000531;28;19920;-87
2021/09/10 00:32:47;;;;;;;2.92;1.50;;;18.50;99.90;;;;;;5018606;28;20105;-85
2021/09/10 00:35:15;;;;;;;4.97;1.50;;;18.50;99.90;;;;;;5033577;28;20060;-86
2021/09/10 00:37:43;;;;;;;5.40;1.58;;;18.50;99.90;;;;;;5036528;28;20064;-86
2021/09/10 00:40:14;;;;;;;;;;;18.40;99.90;;;;;;5053333;28;20041;-86
2021/09/10 00:42:41;;;;;;;4.97;1.23;;;18.60;99.90;;;;;;5035448;28;19920;-86
2021/09/10 00:45:09;;;;;;;3.28;1.40;;;18.40;99.90;;;;;;5026124;28;20045;-85
2021/09/10 00:47:40;;;;;;;6.13;1.63;;;18.50;99.90;;;;;;5047067;28;20049;-86
2021/09/10 00:50:09;;;;;;;8.82;1.38;;;18.50;99.90;;;;;;5052800;28;20037;-87
2021/09/10 00:52:37;;;;;;;5.65;1.10;;;18.50;99.90;;;;;;5036819;28;20037;-86
2021/09/10 00:55:06;;;;;;;3.22;1.15;;;18.50;99.90;;;;;;5017218;28;20053;-85
2021/09/10 00:57:35;;;;;;;4.15;1.20;;;18.50;99.90;;;;;;5024254;28;20060;-86
2021/09/10 01:00:07;;;;;;;2.28;1.27;;;18.50;99.90;;;;;;5011554;28;20041;-86
2021/09/10 01:02:36;;;;;;;9.93;2.03;;;18.50;99.90;;;;;;5047634;28;20057;-84
2021/09/10 01:05:06;;;;;;;4.65;1.98;;;18.50;99.90;;;;;;5040650;28;20388;-86
2021/09/10 01:07:35;;;;;;;4.20;1.10;;;18.50;99.90;;;;;;5040662;28;20053;-86
2021/09/10 01:10:06;;;;;;;3.33;1.45;;;18.50;99.90;;;;;;5059251;28;20040;-85
2021/09/10 01:12:36;;;;;;;2.50;1.17;;;18.50;99.90;;;;;;5042263;28;20049;-88
2021/09/10 01:15:07;;;;;;;4.22;1.45;;;18.50;99.90;;;;;;5022814;28;20049;-86
2021/09/10 01:17:37;;;;;;;1.85;0.98;;;18.50;99.90;;;;;;5033470;28;20060;-85
2021/09/10 01:20:07;;;;;;;3.95;1.15;;;18.50;99.90;;;;;;5019593;28;20056;-86
2021/09/10 01:22:38;;;;;;;3.22;1.20;;;18.50;99.90;;;;;;5051404;28;20061;-87
2021/09/10 01:25:13;;;;;;;3.92;1.58;;;18.50;99.90;;;;;;5053842;28;20052;-86
2021/09/10 01:27:45;;;;;;;3.20;1.35;;;18.50;99.90;;;;;;5028883;28;20076;-86
2021/09/10 01:30:17;;;;;;;4.05;1.38;;;18.50;99.90;;;;;;5053687;28;20055;-88
2021/09/10 01:32:45;;;;;;;;;;;18.50;99.90;;;;;;5035822;28;20061;-86
2021/09/10 01:35:15;;;;;;;2.05;1.23;;;18.50;99.90;;;;;;5058138;28;19955;-85
2021/09/10 01:37:43;;;;;;;7.70;2.05;;;18.50;99.90;;;;;;5052483;28;20504;-86
2021/09/10 01:40:12;;;;;;;15.50;1.70;;;18.50;99.90;;;;;;5051971;28;20058;-87
2021/09/10 01:42:41;;;;;;;5.05;1.05;;;18.50;99.90;;;;;;5058710;28;20048;-85
2021/09/10 01:45:11;;;;;;;2.28;1.25;;;18.40;99.90;;;;;;5059036;28;20048;-86
2021/09/10 01:47:39;;;;;;;4.60;1.52;;;18.40;99.90;;;;;;5030276;28;20036;-86
2021/09/10 01:50:11;;;;;;;7.50;1.80;;;18.40;99.90;;;;;;5049261;28;20063;-86
2021/09/10 01:52:39;;;;;;;;;;;18.40;99.90;;;;;;5041989;28;20199;-86
2021/09/10 01:55:11;;;;;;;2.67;1.20;;;18.40;99.90;;;;;;5035740;28;19925;-86
2021/09/10 01:57:43;;;;;;;4.53;1.40;;;18.40;99.90;;;;;;5042799;28;20411;-87
2021/09/10 02:00:11;;;;;;;5.05;1.73;;;18.70;99.90;;;;;;5059202;28;20381;-84
2021/09/10 02:02:40;;;;;;;5.05;1.40;;;18.40;99.90;;;;;;5062389;28;20052;-86
2021/09/10 02:05:09;;;;;;;4.07;1.40;;;18.40;99.90;;;;;;5029881;28;20045;-86
2021/09/10 02:07:38;;;;;;;1.75;0.90;;;18.40;99.90;;;;;;5055241;28;20055;-88
2021/09/10 02:10:08;;;;;;;6.50;2.65;;;18.40;99.90;;;;;;5080425;28;20041;-88
2021/09/10 02:12:38;;;;;;;5.40;1.30;;;18.40;99.90;;;;;;5042317;28;20057;-87
2021/09/10 02:15:10;;;;;;;3.33;1.40;;;18.40;99.90;;;;;;5067292;28;20053;-88
2021/09/10 02:17:39;;;;;;;9.55;2.90;;;18.40;99.90;;;;;;5052614;28;20048;-87
2021/09/10 02:20:08;;;;;;;5.65;1.50;;;18.40;99.90;;;;;;5055946;28;20049;-87
2021/09/10 02:22:35;;;;;;;3.40;1.17;;;18.50;99.90;;;;;;5057882;28;20059;-88
2021/09/10 02:25:04;;;;;;;4.10;1.17;;;18.50;99.90;;;;;;5059211;28;20084;-88
2021/09/10 02:27:32;;;;;;;2.70;1.30;;;18.40;99.90;;;;;;5059724;28;20045;-85
2021/09/10 02:29:59;;;;;;;4.55;1.45;;;18.40;99.90;;;;;;5058312;28;20049;-88
2021/09/10 02:32:27;;;;;;;3.22;1.40;;;18.40;99.90;;;;;;5053429;28;20537;-87
2021/09/10 02:34:55;;;;;;;5.50;1.52;;;18.50;99.90;;;;;;5051555;28;20815;-89
2021/09/10 02:37:24;;;;;;;2.85;1.50;;;18.40;99.90;;;;;;5043236;28;20053;-87
2021/09/10 02:39:54;;;;;;;3.60;1.75;;;18.40;99.90;;;;;;5047910;28;20447;-87
2021/09/10 02:42:22;;;;;;;6.47;1.90;;;18.40;99.90;;;;;;5045866;28;20401;-86
2021/09/10 02:44:50;;;;;;;3.25;1.48;;;18.40;99.90;;;;;;5024915;28;20416;-87
2021/09/10 02:47:18;;;;;;;7.43;1.92;;;18.50;99.90;;;;;;5041061;28;20042;-86
2021/09/10 02:49:47;;;;;;;10.20;1.95;;;17.60;99.90;;;;;;5039539;28;20057;-86
2021/09/10 02:52:15;;;;;;;9.73;2.63;;;18.50;99.90;;;;;;5033193;28;20052;-87
2021/09/10 02:54:43;;;;;;;5.97;1.95;;;18.50;99.90;;;;;;5025969;28;20029;-87
2021/09/10 02:57:12;;;;;;;2.65;1.75;;;18.50;99.90;;;;;;5048496;28;20049;-87
2021/09/10 02:59:41;;;;;;;4.57;1.77;;;18.50;99.90;;;;;;5058526;28;20060;-86
2021/09/10 03:02:09;;;;;;;5.70;2.40;;;18.50;99.90;;;;;;5057245;28;20037;-86
2021/09/10 03:04:38;;;;;;;4.93;1.77;;;18.50;99.90;;;;;;5046269;28;20058;-88
2021/09/10 03:07:07;;;;;;;8.60;2.00;;;18.50;99.90;;;;;;5037776;28;20041;-86
2021/09/10 03:09:35;;;;;;;3.55;2.08;;;18.50;99.90;;;;;;5046171;28;20056;-85
2021/09/10 03:12:06;;;;;;;5.25;2.03;;;18.50;99.90;;;;;;5027507;28;20048;-86
2021/09/10 03:14:35;;;;;;;5.32;2.03;;;18.50;99.90;;;;;;5036795;28;20045;-87
2021/09/10 03:17:24;;;;;;;7.85;2.50;;;18.40;99.90;;;;;;5121013;27;20393;-87
2021/09/10 03:19:52;;;;;;;9.20;2.95;;;18.40;99.90;;;;;;5109555;28;20122;-88
2021/09/10 03:22:19;;;;;;;7.30;1.98;;;18.40;99.90;;;;;;5097827;28;20407;-86
2021/09/10 03:24:48;;;;;;;5.78;2.05;;;18.40;99.90;;;;;;5098010;28;20047;-86
2021/09/10 03:27:18;;;;;;;5.80;2.20;;;18.30;99.90;;;;;;5093993;28;20056;-89
2021/09/10 03:29:46;;;;;;;6.70;2.13;;;18.30;99.90;;;;;;5097468;28;20051;-86
2021/09/10 03:32:14;;;;;;;10.60;3.58;;;18.30;99.90;;;;;;5096119;28;20410;-88
2021/09/10 03:34:42;;;;;;;4.85;2.30;;;18.20;99.90;;;;;;5081342;28;20071;-86
2021/09/10 03:37:11;;;;;;;4.68;1.73;;;18.20;99.90;;;;;;5085208;28;20419;-89
2021/09/10 03:39:40;;;;;;;4.78;1.75;;;18.20;99.90;;;;;;5116469;28;20050;-88
2021/09/10 03:42:09;;;;;;;6.05;2.10;;;18.10;99.90;;;;;;5126354;28;20066;-90
2021/09/10 03:44:39;;;;;;;7.35;2.35;;;18.00;99.90;;;;;;5085273;28;20051;-89
2021/09/10 03:47:10;;;;;;;3.70;2.15;;;18.00;99.90;;;;;;5080868;28;20521;-87
2021/09/10 03:49:38;;;;;;;5.35;2.60;;;18.00;99.90;;;;;;5081834;28;20047;-89
2021/09/10 03:52:08;;;;;;;7.68;2.10;;;17.90;99.90;;;;;;5114351;28;20059;-86
2021/09/10 03:54:37;;;;;;;7.85;3.10;;;17.90;99.90;;;;;;5083988;28;20509;-86
2021/09/10 03:57:06;;;;;;;11.55;2.67;;;17.80;99.90;;;;;;5080086;28;20055;-89
2021/09/10 03:59:33;;;;;;;3.33;2.10;;;17.80;99.90;;;;;;5113862;28;20040;-86
2021/09/10 04:02:04;;;;;;;6.65;2.67;;;17.80;99.90;;;;;;5102470;28;20066;-85
2021/09/10 04:04:34;;;;;;;12.45;3.25;;;17.70;99.90;;;;;;5104343;28;20478;-89
2021/09/10 04:07:09;;;;;;;7.75;3.40;;;17.70;99.90;;;;;;5087923;28;20044;-90
2021/09/10 04:09:37;;;;;;;6.75;3.25;;;18.30;99.90;;;;;;5106248;28;20054;-90
2021/09/10 04:12:06;;;;;;;14.07;3.65;;;17.70;99.90;;;;;;5086602;28;20479;-91
2021/09/10 04:14:34;;;;;;;9.15;3.80;;;17.60;99.90;;;;;;5091363;28;20689;-90
2021/09/10 04:17:03;;;;;;;8.77;4.75;;;17.70;99.90;;;;;;5086638;28;20044;-89
2021/09/10 04:19:37;;;;;;;13.77;5.68;;;17.70;99.90;;;;;;5069790;28;20220;-90
2021/09/10 04:22:05;;;;;;;13.77;4.93;;;17.70;99.90;;;;;;5082925;28;20046;-89
2021/09/10 04:24:33;;;;;;;12.05;5.63;;;17.80;99.90;;;;;;5099091;28;20048;-90
2021/09/10 04:27:02;;;;;;;13.82;6.15;;;17.70;99.90;;;;;;5094773;28;20045;-88
2021/09/10 04:29:44;;;;;;;17.52;6.13;;;17.80;99.90;;;;;;5084663;28;20048;-90
2021/09/10 04:32:11;;;;;;;13.32;6.75;;;17.70;99.90;;;;;;5085401;28;20056;-90
2021/09/10 04:34:40;;;;;;;12.75;5.40;;;17.70;99.90;;;;;;5065836;28;20053;-86
2021/09/10 04:37:09;;;;;;;13.48;6.57;;;17.70;99.90;;;;;;5087415;28;20445;-91
2021/09/10 04:39:40;;;;;;;17.15;8.13;;;17.70;99.90;;;;;;5067158;28;20040;-89
2021/09/10 04:42:09;;;;;;;16.55;7.97;;;17.70;99.90;;;;;;5093777;28;20044;-89
2021/09/10 04:44:37;;;;;;;22.75;8.80;;;17.70;99.90;;;;;;5066271;28;20047;-89
2021/09/10 04:47:05;;;;;;;20.73;8.27;;;17.70;99.90;;;;;;5060197;28;20060;-89
2021/09/10 04:49:34;;;;;;;18.85;8.32;;;17.70;99.90;;;;;;5045097;28;20051;-86
2021/09/10 04:52:02;;;;;;;21.17;9.23;;;17.70;99.90;;;;;;5080696;28;20040;-87
2021/09/10 04:54:30;;;;;;;23.35;8.73;;;17.70;99.90;;;;;;5047372;28;20052;-87
2021/09/10 04:56:58;;;;;;;27.17;10.10;;;18.10;99.90;;;;;;5031006;28;20048;-89
2021/09/10 04:59:28;;;;;;;21.52;9.50;;;17.60;99.90;;;;;;5081575;28;20049;-87
2021/09/10 05:01:59;;;;;;;23.10;8.40;;;17.60;99.90;;;;;;5084192;28;20044;-88
2021/09/10 05:04:32;;;;;;;19.40;9.30;;;17.60;99.90;;;;;;5081365;28;20041;-86
2021/09/10 05:07:00;;;;;;;36.95;13.95;;;17.60;99.90;;;;;;5035058;28;20071;-89
2021/09/10 05:09:28;;;;;;;18.65;8.10;;;17.60;99.90;;;;;;5088022;28;20032;-84
2021/09/10 05:11:58;;;;;;;19.02;9.57;;;17.60;99.90;;;;;;5063291;28;20053;-86
2021/09/10 05:14:29;;;;;;;17.40;10.05;;;17.60;99.90;;;;;;5065882;28;20047;-86
2021/09/10 05:17:00;;;;;;;19.73;9.23;;;17.70;99.90;;;;;;5082147;28;20037;-87
2021/09/10 05:19:31;;;;;;;18.45;8.75;;;17.70;99.90;;;;;;5080082;28;20254;-88
2021/09/10 05:22:00;;;;;;;21.52;9.82;;;17.70;99.90;;;;;;5064153;28;20587;-88
2021/09/10 05:24:29;;;;;;;23.63;9.27;;;17.70;99.90;;;;;;5063910;28;20205;-84
2021/09/10 05:26:57;;;;;;;21.73;10.35;;;17.70;99.90;;;;;;5082561;28;20044;-88
2021/09/10 05:29:29;;;;;;;22.30;9.50;;;17.60;99.90;;;;;;5053855;28;20048;-86
2021/09/10 05:31:58;;;;;;;25.40;11.13;;;17.60;99.90;;;;;;5065991;28;20040;-85
2021/09/10 05:34:29;;;;;;;23.13;9.77;;;17.60;99.90;;;;;;5064363;28;20055;-89
2021/09/10 05:36:58;;;;;;;19.92;10.23;;;17.60;99.90;;;;;;5087014;28;20062;-90
2021/09/10 05:39:26;;;;;;;21.30;9.90;;;17.50;99.90;;;;;;5061090;28;20589;-84
2021/09/10 05:41:59;;;;;;;26.17;11.20;;;17.50;99.90;;;;;;5065239;28;20056;-88
2021/09/10 05:44:27;;;;;;;20.13;9.25;;;17.60;99.90;;;;;;5083322;28;20047;-87
2021/09/10 05:47:08;;;;;;;23.45;9.65;;;17.50;99.90;;;;;;5084453;28;20044;-85
2021/09/10 05:49:37;;;;;;;20.25;10.32;;;17.60;99.90;;;;;;5066699;28;20058;-89
2021/09/10 05:52:10;;;;;;;23.23;9.82;;;17.50;99.90;;;;;;5061877;28;20055;-89
2021/09/10 05:54:41;;;;;;;20.38;9.07;;;17.50;99.90;;;;;;5068837;28;20044;-86
2021/09/10 05:57:09;;;;;;;26.40;10.75;;;17.50;99.90;;;;;;5063233;28;20037;-86
2021/09/10 05:59:37;;;;;;;17.98;9.25;;;17.50;99.90;;;;;;5081197;28;20411;-86
2021/09/10 06:02:06;;;;;;;21.65;10.18;;;17.50;99.90;;;;;;5047957;28;20060;-88
2021/09/10 06:04:35;;;;;;;19.00;10.68;;;17.60;99.90;;;;;;5043166;28;20083;-87
2021/09/10 06:07:04;;;;;;;19.25;9.23;;;17.50;99.90;;;;;;5055290;28;20049;-84
2021/09/10 06:09:37;;;;;;;19.20;11.27;;;17.50;99.90;;;;;;5038819;28;20052;-85
2021/09/10 06:12:06;;;;;;;16.85;9.25;;;17.60;99.90;;;;;;5081546;28;20076;-88
2021/09/10 06:14:48;;;;;;;25.35;9.10;;;17.60;99.90;;;;;;5061506;28;20051;-86
2021/09/10 06:17:16;;;;;;;18.63;9.75;;;17.50;99.90;;;;;;5041377;28;20072;-85
2021/09/10 06:19:44;;;;;;;18.15;9.27;;;17.50;99.90;;;;;;5079902;28;20041;-86
2021/09/10 06:22:13;;;;;;;20.45;9.63;;;17.50;99.90;;;;;;5059909;28;20431;-88
2021/09/10 06:24:43;;;;;;;17.02;8.65;;;17.60;99.90;;;;;;5076986;28;20048;-86
2021/09/10 06:27:16;;;;;;;19.02;10.10;;;17.60;99.90;;;;;;5059299;28;20056;-86
2021/09/10 06:29:50;;;;;;;20.15;9.70;;;17.60;99.90;;;;;;5041349;28;20045;-87
2021/09/10 06:32:17;;;;;;;18.85;9.68;;;17.60;99.90;;;;;;5061276;28;20040;-87
2021/09/10 06:34:46;;;;;;;18.85;9.75;;;17.70;99.90;;;;;;5045948;28;20567;-85
2021/09/10 06:37:16;;;;;;;18.45;9.18;;;17.80;99.90;;;;;;5056111;28;20415;-85
2021/09/10 06:39:46;;;;;;;19.33;9.23;;;17.80;99.90;;;;;;5060553;28;20037;-86
2021/09/10 06:42:16;;;;;;;21.13;9.07;;;17.90;99.90;;;;;;5079093;28;20047;-86
2021/09/10 06:44:44;;;;;;;19.33;8.90;;;17.90;99.90;;;;;;5060054;28;20045;-85
2021/09/10 06:47:13;;;;;;;18.75;9.25;;;17.90;99.90;;;;;;5078720;28;20041;-88
2021/09/10 06:49:46;;;;;;;15.68;9.65;;;18.00;99.90;;;;;;5076172;28;20048;-90
2021/09/10 06:52:18;;;;;;;17.77;9.20;;;18.10;99.90;;;;;;5076959;28;20040;-88
2021/09/10 06:54:46;;;;;;;19.40;8.57;;;18.10;99.90;;;;;;5079235;28;20040;-88
2021/09/10 06:57:15;;;;;;;20.88;8.68;;;18.00;99.90;;;;;;5079040;28;20048;-88
2021/09/10 06:59:42;;;;;;;19.88;9.60;;;18.30;99.90;;;;;;5043565;28;20052;-89
2021/09/10 07:02:13;;;;;;;16.10;8.25;;;18.30;99.90;;;;;;5044123;28;20431;-87
2021/09/10 07:04:41;;;;;;;21.30;7.78;;;18.40;99.90;;;;;;5056963;28;20049;-89
2021/09/10 07:07:11;;;;;;;17.08;8.70;;;18.50;99.90;;;;;;5058448;28;20138;-88
2021/09/10 07:09:40;;;;;;;20.00;8.52;;;18.60;99.90;;;;;;5070584;28;20048;-86
2021/09/10 07:12:09;;;;;;;16.77;8.15;;;18.80;99.90;;;;;;5043654;28;20064;-87
2021/09/10 07:14:36;;;;;;;17.92;7.20;;;18.90;99.90;;;;;;5062642;28;20052;-88
2021/09/10 07:17:06;;;;;;;16.73;7.57;;;19.00;99.90;;;;;;5059822;28;20049;-90
2021/09/10 07:19:36;;;;;;;20.45;8.18;;;19.10;99.90;;;;;;5077351;28;20052;-90
2021/09/10 07:22:04;;;;;;;12.90;7.00;;;19.20;99.90;;;;;;5077143;28;20040;-90
2021/09/10 07:24:32;;;;;;;17.27;8.95;;;19.30;99.90;;;;;;5057639;28;20449;-88
2021/09/10 07:27:00;;;;;;;15.52;6.43;;;19.40;99.90;;;;;;5075587;28;20047;-90
2021/09/10 07:29:30;;;;;;;;;;;19.50;99.90;;;;;;5063046;28;20051;-87
2021/09/10 07:32:07;;;;;;;17.83;7.07;;;19.60;99.90;;;;;;5044926;28;19931;-91
2021/09/10 07:34:39;;;;;;;15.43;7.28;;;19.70;99.90;;;;;;5054986;28;20041;-88
2021/09/10 07:37:09;;;;;;;19.08;6.65;;;19.80;99.90;;;;;;5032528;28;20055;-88
2021/09/10 07:39:40;;;;;;;14.68;5.60;;;19.80;99.90;;;;;;5077564;28;20068;-89
2021/09/10 07:42:10;;;;;;;15.07;6.32;;;19.80;99.90;;;;;;5061864;28;20052;-91
2021/09/10 07:44:45;;;;;;;16.55;5.68;;;19.90;99.90;;;;;;5038316;28;20040;-87
2021/09/10 07:47:19;;;;;;;17.30;6.78;;;19.90;99.90;;;;;;5056863;28;20059;-88
2021/09/10 07:49:51;;;;;;;14.45;6.25;;;19.90;99.90;;;;;;5067267;28;20052;-88
2021/09/10 07:52:18;;;;;;;10.88;5.53;;;19.90;99.90;;;;;;5068572;28;20044;-88
2021/09/10 07:54:50;;;;;;;11.80;5.38;;;19.90;99.90;;;;;;5048750;28;20500;-86
2021/09/10 07:57:26;;;;;;;15.02;5.97;;;19.90;99.90;;;;;;5080450;28;20041;-89
2021/09/10 07:59:55;;;;;;;13.13;5.93;;;19.90;99.90;;;;;;5047424;28;20044;-90
2021/09/10 08:02:28;;;;;;;12.90;7.40;;;19.90;99.90;;;;;;5067430;28;20071;-89
2021/09/10 08:05:02;;;;;;;11.15;5.15;;;20.00;99.90;;;;;;5083019;28;20040;-90
2021/09/10 08:07:32;;;;;;;12.32;6.38;;;19.90;99.90;;;;;;5062587;28;20040;-90
2021/09/10 08:10:00;;;;;;;15.88;6.20;;;19.90;99.90;;;;;;5080661;28;20044;-90
2021/09/10 08:12:29;;;;;;;13.65;5.32;;;19.90;99.90;;;;;;5037684;28;20053;-89
2021/09/10 08:14:59;;;;;;;12.87;5.77;;;19.90;99.90;;;;;;5070192;28;20044;-88
2021/09/10 08:17:36;;;;;;;8.75;4.28;;;20.00;99.90;;;;;;5084524;28;20281;-89
2021/09/10 08:20:09;;;;;;;20.17;5.82;;;20.00;99.90;;;;;;5083381;28;20040;-90
2021/09/10 08:22:38;;;;;;;11.50;6.00;;;20.00;99.90;;;;;;5058289;28;20052;-88
2021/09/10 08:25:10;;;;;;;11.32;5.22;;;20.00;99.90;;;;;;5083360;28;20044;-88
2021/09/10 08:27:45;;;;;;;13.20;5.07;;;20.10;99.90;;;;;;5035276;28;20045;-90
2021/09/10 08:30:14;;;;;;;10.88;5.20;;;20.10;99.90;;;;;;5078581;28;20052;-90
2021/09/10 08:32:55;;;;;;;11.35;5.00;;;21.30;99.90;;;;;;5071404;28;20048;-89
2021/09/10 08:35:24;;;;;;;12.35;4.93;;;20.20;99.90;;;;;;5065364;28;20056;-90
2021/09/10 08:37:53;;;;;;;11.38;5.50;;;20.30;99.90;;;;;;5086246;28;20041;-90
2021/09/10 08:40:23;;;;;;;17.80;5.40;;;20.30;99.90;;;;;;5078672;28;20049;-88
2021/09/10 08:42:52;;;;;;;12.20;5.05;;;20.40;99.90;;;;;;5077707;28;20335;-89
2021/09/10 08:45:29;;;;;;;11.50;4.78;;;20.40;99.90;;;;;;5061547;28;20079;-89
2021/09/10 08:47:59;;;;;;;12.35;5.38;;;20.50;99.90;;;;;;5048375;28;20063;-89
2021/09/10 08:50:27;;;;;;;17.38;5.65;;;20.50;99.90;;;;;;5045084;28;20053;-88
2021/09/10 08:52:56;;;;;;;12.00;4.47;;;20.60;99.90;;;;;;5060821;28;20435;-90
2021/09/10 08:55:28;;;;;;;9.77;4.68;;;20.70;99.90;;;;;;5059859;28;20384;-90
2021/09/10 08:57:56;;;;;;;12.63;3.90;;;20.70;99.90;;;;;;5060348;28;20056;-89
2021/09/10 09:00:40;;;;;;;8.57;3.45;;;20.80;99.90;;;;;;5044038;28;20048;-90
2021/09/10 09:03:10;;;;;;;8.98;5.35;;;20.90;99.90;;;;;;5041155;28;20053;-89
2021/09/10 09:05:40;;;;;;;12.52;4.03;;;20.90;99.90;;;;;;5038271;28;20059;-88
2021/09/10 09:08:36;;;;;;;16.45;3.60;;;20.90;99.90;;;;;;5056367;28;20711;-90
2021/09/10 09:11:11;;;;;;;14.82;4.30;;;20.90;99.90;;;;;;5059951;28;20487;-88
2021/09/10 09:13:45;;;;;;;6.88;3.40;;;20.90;99.90;;;;;;5025842;28;20071;-89
2021/09/10 09:16:30;;;;;;;9.85;3.88;;;20.90;99.90;;;;;;5043328;28;20054;-91
2021/09/10 09:19:03;;;;;;;8.05;3.10;;;21.00;99.90;;;;;;5034242;28;20432;-89
2021/09/10 09:21:38;;;;;;;6.40;3.33;;;21.00;99.90;;;;;;5049902;28;20061;-88
2021/09/10 09:24:14;;;;;;;11.45;4.10;;;21.00;99.90;;;;;;5015321;28;20065;-89
2021/09/10 09:26:43;;;;;;;15.65;3.88;;;21.00;99.90;;;;;;5034815;28;20048;-85
2021/09/10 09:29:17;;;;;;;7.97;3.42;;;21.60;99.90;;;;;;5035042;28;20061;-88
2021/09/10 09:32:05;;;;;;;11.38;4.28;;;21.30;99.90;;;;;;5039875;28;20040;-87
2021/09/10 09:34:50;;;;;;;13.05;3.95;;;21.10;99.90;;;;;;5038617;28;20048;-89
2021/09/10 09:37:24;;;;;;;6.85;2.75;;;21.10;99.90;;;;;;5042870;28;20388;-91
2021/09/10 09:39:55;;;;;;;11.48;2.65;;;21.10;99.90;;;;;;5062693;28;20041;-90
2021/09/10 09:42:27;;;;;;;7.95;3.03;;;21.10;99.90;;;;;;5057213;28;20049;-90
2021/09/10 09:45:15;;;;;;;14.20;3.90;;;21.20;99.90;;;;;;5042492;28;20057;-90
2021/09/10 09:47:45;;;;;;;10.18;3.38;;;21.20;99.90;;;;;;5042310;28;20044;-91
2021/09/10 09:50:17;;;;;;;10.82;3.17;;;21.20;99.90;;;;;;5024598;28;20068;-89
2021/09/10 09:52:50;;;;;;;8.88;3.58;;;21.20;99.90;;;;;;5019483;28;20046;-91
2021/09/10 09:55:19;;;;;;;9.75;3.72;;;21.10;99.90;;;;;;5032428;28;20053;-90
2021/09/10 09:57:50;;;;;;;15.57;3.45;;;21.10;99.90;;;;;;5022183;28;20041;-88
2021/09/10 10:00:18;;;;;;;11.18;4.10;;;21.10;99.90;;;;;;5048751;28;20064;-88
2021/09/10 10:02:46;;;;;;;9.40;3.45;;;21.20;99.90;;;;;;5035720;28;20033;-90
2021/09/10 10:05:17;;;;;;;13.00;3.00;;;21.20;99.90;;;;;;5021650;28;20546;-90
2021/09/10 10:08:02;;;;;;;8.95;3.40;;;21.40;99.90;;;;;;5023016;28;20515;-88
2021/09/10 10:10:42;;;;;;;14.10;3.92;;;21.50;99.90;;;;;;5038582;28;20041;-89
2021/09/10 10:13:26;;;;;;;7.25;2.50;;;21.60;99.90;;;;;;5036716;28;20068;-89
2021/09/10 10:15:54;;;;;;;12.13;3.13;;;21.70;99.90;;;;;;5053103;28;20491;-87
2021/09/10 10:18:44;;;;;;;6.75;2.33;;;21.90;99.90;;;;;;5052267;28;20063;-88
2021/09/10 10:21:13;;;;;;;4.80;2.08;;;22.00;99.90;;;;;;5074463;28;20061;-89
2021/09/10 10:23:42;;;;;;;6.43;3.03;;;22.10;99.90;;;;;;5072094;28;20052;-88
2021/09/10 10:26:21;;;;;;;7.55;2.10;;;22.20;99.90;;;;;;5051682;28;20392;-90
2021/09/10 10:28:51;;;;;;;7.82;2.35;;;22.20;99.90;;;;;;5056432;28;20040;-91
2021/09/10 10:31:55;;;;;;;7.47;2.30;;;22.20;99.90;;;;;;5067893;28;20055;-90
2021/09/10 10:34:35;;;;;;;9.73;2.90;;;22.30;99.90;;;;;;5066521;28;20048;-88
2021/09/10 10:37:39;;;;;;;11.80;1.90;;;22.40;99.90;;;;;;5042597;28;20048;-91
2021/09/10 10:40:36;;;;;;;5.15;2.03;;;22.40;99.90;;;;;;5051338;28;20162;-89
2021/09/10 10:43:24;;;;;;;3.15;2.15;;;22.40;99.90;;;;;;5052771;28;20041;-88
2021/09/10 10:46:03;;;;;;;4.05;1.70;;;22.50;99.90;;;;;;5052633;28;20049;-88
2021/09/10 10:48:36;;;;;;;2.70;1.25;;;22.50;99.90;;;;;;5037332;28;20464;-89
2021/09/10 10:51:16;;;;;;;4.38;2.20;;;22.40;99.90;;;;;;5073211;28;20048;-89
2021/09/10 10:53:47;;;;;;;3.92;2.08;;;22.30;99.90;;;;;;5073733;28;20051;-88
2021/09/10 10:56:34;;;;;;;5.13;2.63;;;22.20;99.90;;;;;;5054236;28;20059;-89
2021/09/10 10:59:14;;;;;;;3.20;2.33;;;22.10;99.90;;;;;;5074497;28;20538;-87
2021/09/10 11:02:17;;;;;;;6.05;2.08;;;22.00;99.90;;;;;;5074794;28;20033;-89
2021/09/10 11:04:47;;;;;;;5.50;2.00;;;21.90;99.90;;;;;;5039116;28;20049;-88
2021/09/10 11:07:27;;;;;;;8.00;2.92;;;21.90;99.90;;;;;;5055899;28;20527;-87
2021/09/10 11:10:16;;;;;;;8.07;2.40;;;22.10;99.90;;;;;;5059204;28;20048;-89
2021/09/10 11:12:46;;;;;;;5.95;3.03;;;22.20;99.90;;;;;;5076147;28;20280;-88
2021/09/10 11:15:28;;;;;;;9.33;3.70;;;22.40;99.90;;;;;;5081339;28;20057;-87
2021/09/10 11:18:11;;;;;;;10.05;4.30;;;22.50;99.90;;;;;;5074294;28;20495;-88
2021/09/10 11:20:48;;;;;;;4.35;1.83;;;22.60;99.90;;;;;;5057446;28;20399;-89
2021/09/10 11:23:31;;;;;;;3.42;1.65;;;22.70;99.90;;;;;;5075219;28;20041;-88
2021/09/10 11:26:00;;;;;;;3.10;1.35;;;22.70;99.90;;;;;;5058895;28;20396;-88
2021/09/10 11:28:33;;;;;;;6.13;1.55;;;22.70;99.90;;;;;;5073080;28;20033;-88
2021/09/10 11:31:11;;;;;;;3.90;1.95;;;22.70;99.90;;;;;;5076483;28;20051;-89
2021/09/10 11:37:35;;;;;;;;;;;;;;;;;;;;;
2021/09/10 11:40:12;;;;;;;7.20;1.77;;;23.50;99.90;;;;;;5079020;28;20044;-89
2021/09/10 11:42:42;;;;;;;3.25;1.55;;;22.80;99.90;;;;;;5042061;28;20048;-90
2021/09/10 11:45:14;;;;;;;2.35;0.93;;;22.80;99.90;;;;;;5063261;28;20056;-89
2021/09/10 11:47:48;;;;;;;6.53;1.58;;;22.80;99.90;;;;;;5078017;28;20059;-91
2021/09/10 11:50:20;;;;;;;5.18;1.33;;;23.80;99.90;;;;;;5072722;28;20037;-91
2021/09/10 11:52:48;;;;;;;1.40;1.02;;;22.90;99.90;;;;;;5063188;28;20052;-89
2021/09/10 11:55:19;;;;;;;2.35;1.08;;;22.90;99.90;;;;;;5077957;28;20056;-87
2021/09/10 11:58:11;;;;;;;2.55;0.98;;;23.00;99.90;;;;;;5065961;28;20044;-86
2021/09/10 12:00:41;;;;;;;2.47;1.23;;;23.00;99.90;;;;;;5075156;28;20056;-88
2021/09/10 12:03:12;;;;;;;1.40;0.95;;;23.10;99.90;;;;;;5077239;28;20399;-89
2021/09/10 12:05:43;;;;;;;2.00;0.97;;;23.20;99.90;;;;;;5063090;28;20056;-89
2021/09/10 12:08:13;;;;;;;2.65;1.60;;;23.20;99.90;;;;;;5057078;28;20059;-89
2021/09/10 12:10:43;;;;;;;5.15;1.30;;;23.30;99.90;;;;;;5075946;28;20040;-87
2021/09/10 12:13:15;;;;;;;3.93;1.07;;;23.30;99.90;;;;;;5076541;28;20052;-90
2021/09/10 12:15:44;;;;;;;2.03;1.05;;;23.30;99.90;;;;;;5074967;28;20289;-89
2021/09/10 12:18:18;;;;;;;4.75;1.40;;;23.30;99.90;;;;;;5077926;28;20044;-89
2021/09/10 12:20:53;;;;;;;3.97;1.17;;;23.40;99.90;;;;;;5082515;28;20044;-87
2021/09/10 12:23:29;;;;;;;2.33;1.52;;;23.50;99.90;;;;;;5076602;28;20044;-89
2021/09/10 12:25:59;;;;;;;2.28;1.20;;;23.60;99.90;;;;;;5066020;28;20037;-89
2021/09/10 12:28:31;;;;;;;4.23;1.53;;;23.60;99.90;;;;;;5084919;28;20063;-87
2021/09/10 12:31:31;;;;;;;2.15;1.73;;;23.50;99.80;;;;;;5089647;28;20044;-86
2021/09/10 12:34:03;;;;;;;4.18;1.67;;;23.30;99.90;;;;;;5065788;28;20032;-86
2021/09/10 12:36:33;;;;;;;3.30;2.17;;;23.30;99.90;;;;;;5069812;28;20049;-87
2021/09/10 12:39:04;;;;;;;2.50;1.90;;;23.20;99.90;;;;;;5085121;28;20047;-89
2021/09/10 12:41:37;;;;;;;4.57;1.83;;;23.20;99.90;;;;;;5067563;28;20052;-87
2021/09/10 12:44:10;;;;;;;3.78;2.47;;;23.20;99.90;;;;;;5075348;28;20037;-88
2021/09/10 12:46:41;;;;;;;6.05;1.95;;;23.30;99.90;;;;;;5090101;28;20049;-88
2021/09/10 12:49:36;;;;;;;7.20;2.05;;;23.40;99.90;;;;;;5089807;28;20647;-90
2021/09/10 12:52:07;;;;;;;3.53;2.42;;;23.50;99.60;;;;;;5084278;28;20245;-87
2021/09/10 12:54:35;;;;;;;4.18;2.47;;;23.60;99.70;;;;;;5053518;28;20045;-90
2021/09/10 12:57:03;;;;;;;5.25;2.65;;;23.60;99.70;;;;;;5090574;28;20046;-87
2021/09/10 12:59:34;;;;;;;4.50;2.10;;;23.60;99.60;;;;;;5069866;28;20055;-87
2021/09/10 13:02:11;;;;;;;2.90;1.42;;;23.60;99.70;;;;;;5070003;28;20053;-85
2021/09/10 13:05:08;;;;;;;9.73;2.67;;;23.50;99.60;;;;;;5089770;28;20041;-89
2021/09/10 13:07:37;;;;;;;9.50;2.15;;;23.50;99.80;;;;;;5089597;28;20048;-89
2021/09/10 13:10:07;;;;;;;2.72;1.60;;;23.50;99.50;;;;;;5072003;28;20050;-90
2021/09/10 13:12:36;;;;;;;3.90;2.22;;;23.40;99.70;;;;;;5089741;28;20053;-88